Time;durP1;ratioP1;P1;durP2;ratioP2;P2;SDS_P1;SDS_P2;PMS_P1;PMS_P2;Temp;Humidity;BMP_temperature;BMP_pressure;BME280_temperature;BME280_humidity;BME280_pressure;Samples;Min_cycle;Max_cycle;Signal;HPM_P1;HPM_P2
2023/04/06 00:00:08;;;;;;;14.13;10.65;;;;;;;5.46;64.25;101721.00;5243379;28;20463;-68
2023/04/06 00:02:40;;;;;;;16.60;10.50;;;;;;;5.44;65.13;101718.44;5245932;28;20031;-68
2023/04/06 00:05:11;;;;;;;13.52;10.75;;;;;;;5.35;64.96;101711.13;5243599;28;20029;-68
2023/04/06 00:07:42;;;;;;;13.57;10.27;;;;;;;5.37;65.88;101711.88;5244698;28;20021;-68
2023/04/06 00:10:14;;;;;;;15.85;10.95;;;;;;;5.35;64.28;101716.31;5242603;28;20576;-68
2023/04/06 00:12:45;;;;;;;13.65;10.50;;;;;;;5.31;64.18;101705.22;5245247;28;20032;-68
2023/04/06 00:15:16;;;;;;;12.40;10.27;;;;;;;5.29;63.74;101703.63;5245087;28;20021;-68
2023/04/06 00:17:48;;;;;;;12.70;10.27;;;;;;;5.24;64.53;101701.25;5241429;28;20195;-68
2023/04/06 00:20:19;;;;;;;14.52;9.93;;;;;;;5.27;64.71;101708.06;5243464;28;20083;-68
2023/04/06 00:22:51;;;;;;;15.90;10.23;;;;;;;5.22;64.65;101703.06;5243710;28;20032;-68
2023/04/06 00:25:22;;;;;;;15.75;10.73;;;;;;;5.20;65.24;101701.47;5244667;28;20025;-67
2023/04/06 00:27:53;;;;;;;13.50;9.93;;;;;;;5.28;64.28;101697.56;5243067;28;20104;-68
2023/04/06 00:30:25;;;;;;;13.05;10.05;;;;;;;5.19;65.32;101695.44;5244353;28;20020;-67
2023/04/06 00:32:56;;;;;;;13.30;9.40;;;;;;;5.20;64.64;101691.09;5243373;28;20562;-68
2023/04/06 00:35:27;;;;;;;15.23;10.05;;;;;;;5.17;64.86;101686.88;5246934;28;20024;-68
2023/04/06 00:37:59;;;;;;;16.30;10.23;;;;;;;5.20;65.17;101685.88;5242701;28;20026;-68
2023/04/06 00:40:30;;;;;;;13.80;10.23;;;;;;;5.14;65.83;101687.00;5242034;28;20086;-68
2023/04/06 00:43:02;;;;;;;16.02;10.07;;;;;;;5.14;64.79;101681.81;5243685;28;20021;-68
2023/04/06 00:45:33;;;;;;;14.02;9.75;;;;;;;5.12;66.15;101675.88;5244978;28;20720;-68
2023/04/06 00:48:05;;;;;;;13.70;10.63;;;;;;;5.09;66.04;101674.25;5246446;28;20067;-68
2023/04/06 00:50:37;;;;;;;13.82;9.82;;;;;;;5.15;64.26;101665.31;5244245;28;20041;-68
2023/04/06 00:53:08;;;;;;;13.60;10.25;;;;;;;5.21;64.68;101675.41;5242838;28;20033;-68
2023/04/06 00:55:39;;;;;;;12.82;9.95;;;;;;;5.26;66.00;101667.38;5243333;28;20053;-68
2023/04/06 00:58:11;;;;;;;13.32;9.88;;;;;;;5.26;63.44;101668.22;5246007;28;20017;-68
2023/04/06 01:00:42;;;;;;;12.75;9.00;;;;;;;5.34;63.43;101660.03;5242451;28;20143;-68
2023/04/06 01:03:13;;;;;;;13.93;10.48;;;;;;;5.40;61.09;101653.72;5244267;28;20502;-68
2023/04/06 01:05:45;;;;;;;14.52;9.48;;;;;;;5.47;58.32;101653.34;5244480;28;20036;-68
2023/04/06 01:08:16;;;;;;;16.77;9.57;;;;;;;5.54;58.10;101651.28;5242720;28;20440;-68
2023/04/06 01:10:47;;;;;;;14.27;9.95;;;;;;;5.59;57.73;101650.09;5245227;28;20505;-68
2023/04/06 01:13:19;;;;;;;13.45;9.18;;;;;;;5.57;57.90;101645.91;5245111;28;20404;-68
2023/04/06 01:15:50;;;;;;;14.70;9.88;;;;;;;5.65;57.34;101640.34;5243898;28;20474;-68
2023/04/06 01:18:28;;;;;;;12.88;9.00;;;;;;;5.77;56.65;101642.28;5241151;28;20029;-68
2023/04/06 01:21:01;;;;;;;14.35;10.18;;;;;;;5.71;56.93;101642.59;5243479;28;20053;-68
2023/04/06 01:23:32;;;;;;;13.50;9.33;;;;;;;5.78;57.13;101638.75;5243703;28;20120;-68
2023/04/06 01:26:03;;;;;;;13.65;9.95;;;;;;;5.71;57.18;101635.63;5243424;28;20291;-68
2023/04/06 01:28:37;;;;;;;14.60;10.05;;;;;;;5.77;57.02;101639.69;5243877;28;20051;-68
2023/04/06 01:31:08;;;;;;;;;;;;;;;6.40;55.20;101645.00;5243190;28;20308;-68
2023/04/06 01:33:40;;;;;;;15.25;9.70;;;;;;;5.83;56.53;101635.03;5243315;28;19920;-68
2023/04/06 01:36:11;;;;;;;14.00;9.77;;;;;;;5.86;57.18;101637.44;5240284;28;20028;-68
2023/04/06 01:38:42;;;;;;;13.30;10.35;;;;;;;5.78;56.13;101625.75;5244516;28;20037;-68
2023/04/06 01:41:14;;;;;;;13.98;10.23;;;;;;;5.81;56.66;101625.59;5239108;28;20533;-68
2023/04/06 01:43:47;;;;;;;14.43;10.98;;;;;;;5.82;57.21;101625.50;5244333;28;20063;-68
2023/04/06 01:46:18;;;;;;;14.93;10.75;;;;;;;5.83;56.91;101618.56;5246838;28;20470;-68
2023/04/06 01:48:50;;;;;;;15.00;10.30;;;;;;;5.85;56.72;101617.56;5248908;28;20036;-68
2023/04/06 01:51:21;;;;;;;15.65;10.75;;;;;;;5.86;57.45;101615.78;5243080;28;20825;-68
2023/04/06 01:53:52;;;;;;;17.10;10.48;;;;;;;5.91;56.71;101619.00;5248159;28;20028;-68
2023/04/06 01:56:24;;;;;;;15.25;10.10;;;;;;;5.93;56.20;101616.34;5249889;28;20661;-68
2023/04/06 01:58:56;;;;;;;15.80;10.32;;;;;;;5.84;57.30;101605.50;5247139;28;20025;-67
2023/04/06 02:01:27;;;;;;;17.20;12.05;;;;;;;5.86;58.42;101601.03;5246410;28;20032;-68
2023/04/06 02:03:58;;;;;;;16.55;11.70;;;;;;;5.92;58.23;101601.66;5246439;28;20113;-68
2023/04/06 02:06:30;;;;;;;17.50;11.52;;;;;;;5.91;57.13;101598.22;5247010;28;20374;-68
2023/04/06 02:09:01;;;;;;;15.38;11.55;;;;;;;5.90;57.17;101596.50;5245166;28;20264;-68
2023/04/06 02:11:33;;;;;;;15.50;10.93;;;;;;;5.98;57.94;101601.34;5245264;28;20029;-67
2023/04/06 02:14:04;;;;;;;15.68;11.35;;;;;;;5.99;58.62;101600.44;5247008;28;20033;-68
2023/04/06 02:16:35;;;;;;;16.83;11.52;;;;;;;5.99;57.85;101601.25;5247138;28;20029;-68
2023/04/06 02:19:07;;;;;;;18.02;11.65;;;;;;;6.00;59.89;101592.53;5240953;28;20123;-68
2023/04/06 02:21:38;;;;;;;17.17;11.57;;;;;;;6.00;58.22;101586.50;5248691;28;20021;-68
2023/04/06 02:24:09;;;;;;;15.20;11.48;;;;;;;6.01;58.20;101589.00;5244857;28;20038;-68
2023/04/06 02:26:41;;;;;;;18.05;12.38;;;;;;;6.02;57.90;101585.50;5247334;28;20075;-68
2023/04/06 02:29:12;;;;;;;16.65;12.02;;;;;;;5.99;58.26;101579.63;5247124;28;20021;-68
2023/04/06 02:31:43;;;;;;;16.77;12.60;;;;;;;6.02;59.49;101577.69;5246893;28;20039;-68
2023/04/06 02:34:17;;;;;;;17.83;12.52;;;;;;;6.04;58.52;101580.22;5245909;28;20017;-68
2023/04/06 02:36:48;;;;;;;19.17;12.52;;;;;;;6.07;58.90;101574.84;5247503;28;20040;-67
2023/04/06 02:39:19;;;;;;;17.67;12.20;;;;;;;6.06;59.05;101563.59;5247511;28;20920;-68
2023/04/06 02:41:51;;;;;;;16.27;12.43;;;;;;;6.12;58.74;101566.78;5247838;28;20446;-68
2023/04/06 02:44:22;;;;;;;17.17;12.43;;;;;;;6.13;57.78;101569.28;5245186;28;20020;-68
2023/04/06 02:46:54;;;;;;;19.02;12.60;;;;;;;6.15;57.60;101558.81;5243469;28;20033;-67
2023/04/06 02:49:25;;;;;;;17.17;12.10;;;;;;;6.16;58.61;101563.09;5242862;28;20044;-68
2023/04/06 02:51:56;;;;;;;20.85;13.45;;;;;;;6.26;59.09;101561.66;5243139;28;20513;-68
2023/04/06 02:54:28;;;;;;;21.05;13.10;;;;;;;6.30;57.30;101555.38;5244416;28;20029;-68
2023/04/06 02:56:59;;;;;;;17.30;12.70;;;;;;;6.28;58.29;101552.00;5244562;28;20029;-68
2023/04/06 02:59:30;;;;;;;19.08;14.02;;;;;;;6.29;58.13;101549.31;5242835;28;20031;-68
2023/04/06 03:02:01;;;;;;;17.42;12.68;;;;;;;6.32;57.33;101543.09;5246421;28;20143;-68
2023/04/06 03:04:33;;;;;;;17.70;13.48;;;;;;;6.29;57.05;101545.91;5243128;28;20564;-69
2023/04/06 03:07:04;;;;;;;19.98;14.65;;;;;;;6.26;57.81;101543.44;5244775;28;20051;-68
2023/04/06 03:09:37;;;;;;;19.73;12.77;;;;;;;6.31;57.82;101554.44;5244626;28;20040;-68
2023/04/06 03:12:08;;;;;;;19.23;13.50;;;;;;;6.30;57.29;101548.41;5239409;28;20029;-68
2023/04/06 03:14:40;;;;;;;21.48;14.43;;;;;;;6.30;57.33;101550.16;5240965;28;20032;-68
2023/04/06 03:17:11;;;;;;;18.55;13.75;;;;;;;6.27;57.17;101543.34;5243778;28;20037;-68
2023/04/06 03:19:42;;;;;;;16.92;13.25;;;;;;;6.23;57.08;101533.22;5243943;28;20022;-68
2023/04/06 03:22:14;;;;;;;17.45;13.40;;;;;;;6.28;57.32;101532.00;5241321;28;20034;-68
2023/04/06 03:24:45;;;;;;;21.20;14.35;;;;;;;6.31;57.03;101538.81;5243856;28;20021;-68
2023/04/06 03:27:16;;;;;;;17.00;13.80;;;;;;;6.34;57.10;101528.25;5244453;28;20025;-68
2023/04/06 03:29:47;;;;;;;19.27;13.82;;;;;;;6.36;57.25;101528.16;5242273;28;20564;-68
2023/04/06 03:32:19;;;;;;;17.65;13.63;;;;;;;6.37;56.98;101529.84;5239866;28;20021;-68
2023/04/06 03:34:50;;;;;;;16.02;13.15;;;;;;;6.31;57.22;101525.81;5242232;28;20394;-68
2023/04/06 03:37:21;;;;;;;19.33;14.10;;;;;;;6.32;57.03;101522.28;5245820;28;20032;-69
2023/04/06 03:39:53;;;;;;;19.38;14.23;;;;;;;6.32;57.02;101514.47;5243514;28;20036;-69
2023/04/06 03:42:24;;;;;;;17.75;13.43;;;;;;;6.34;56.78;101517.84;5244667;28;20513;-69
2023/04/06 03:44:56;;;;;;;18.17;13.98;;;;;;;6.35;56.93;101522.09;5245712;28;20028;-68
2023/04/06 03:47:27;;;;;;;18.08;13.68;;;;;;;6.35;57.25;101524.72;5245001;28;20028;-69
2023/04/06 03:49:58;;;;;;;21.65;15.50;;;;;;;6.33;57.55;101518.78;5245006;28;20115;-69
2023/04/06 03:52:30;;;;;;;22.67;13.82;;;;;;;6.36;57.26;101525.53;5245782;28;20132;-68
2023/04/06 03:55:01;;;;;;;18.98;14.38;;;;;;;6.40;57.48;101519.25;5243782;28;20036;-69
2023/04/06 03:57:32;;;;;;;19.85;13.73;;;;;;;6.42;56.74;101520.00;5244294;28;20044;-69
2023/04/06 04:00:04;;;;;;;18.92;14.18;;;;;;;6.41;57.17;101518.34;5244408;28;20104;-69
2023/04/06 04:02:36;;;;;;;18.58;14.25;;;;;;;6.36;57.09;101520.34;5247959;28;20040;-69
2023/04/06 04:05:07;;;;;;;19.35;14.25;;;;;;;6.40;57.12;101519.25;5246033;28;20040;-68
2023/04/06 04:07:39;;;;;;;17.40;13.55;;;;;;;6.34;56.80;101516.06;5245648;28;20108;-69
2023/04/06 04:10:10;;;;;;;20.55;14.73;;;;;;;6.35;57.38;101522.09;5242853;28;20025;-69
2023/04/06 04:12:41;;;;;;;20.15;15.23;;;;;;;6.31;56.91;101515.41;5246118;28;20121;-69
2023/04/06 04:15:13;;;;;;;24.17;15.10;;;;;;;6.32;56.89;101511.88;5246226;28;20017;-68
2023/04/06 04:17:46;;;;;;;17.40;13.90;;;;;;;6.32;57.28;101514.47;5243860;28;20029;-69
2023/04/06 04:20:18;;;;;;;22.05;14.13;;;;;;;6.31;56.68;101521.44;5243413;28;20025;-68
2023/04/06 04:22:49;;;;;;;22.55;14.57;;;;;;;6.32;55.52;101515.31;5244245;28;20033;-68
2023/04/06 04:25:20;;;;;;;22.83;14.60;;;;;;;6.32;56.24;101514.47;5244841;28;20025;-68
2023/04/06 04:27:52;;;;;;;18.38;13.35;;;;;;;6.31;56.67;101518.00;5243987;28;20098;-68
2023/04/06 04:30:23;;;;;;;19.02;14.32;;;;;;;6.31;57.08;101513.63;5243793;28;20025;-68
2023/04/06 04:32:54;;;;;;;19.30;13.27;;;;;;;6.33;56.37;101514.41;5245601;28;20108;-68
2023/04/06 04:35:26;;;;;;;18.63;13.15;;;;;;;6.30;57.05;101514.56;5246670;28;20029;-68
2023/04/06 04:37:58;;;;;;;23.15;15.00;;;;;;;6.28;57.54;101511.19;5241363;28;20032;-69
2023/04/06 04:40:29;;;;;;;18.95;14.68;;;;;;;6.31;57.08;101507.59;5246371;28;20483;-68
2023/04/06 04:43:00;;;;;;;19.10;13.85;;;;;;;6.32;56.93;101512.69;5243107;28;20075;-69
2023/04/06 04:45:31;;;;;;;19.02;13.95;;;;;;;6.30;56.66;101506.75;5245656;28;20059;-69
2023/04/06 04:48:04;;;;;;;21.77;14.90;;;;;;;6.34;56.09;101507.44;5244732;28;20505;-69
2023/04/06 04:50:36;;;;;;;18.48;14.50;;;;;;;6.36;56.59;101502.97;5243137;28;20029;-69
2023/04/06 04:53:07;;;;;;;18.65;14.18;;;;;;;6.30;56.37;101500.72;5245918;28;20024;-69
2023/04/06 04:55:38;;;;;;;16.90;13.25;;;;;;;6.32;57.31;101501.44;5244325;28;20062;-68
2023/04/06 04:58:14;;;;;;;21.95;13.77;;;;;;;6.30;57.43;101493.75;5239342;28;20047;-68
2023/04/06 05:00:46;;;;;;;17.73;13.60;;;;;;;6.24;56.76;101486.28;5239756;28;20520;-68
2023/04/06 05:03:23;;;;;;;18.70;13.00;;;;;;;6.44;57.05;101494.72;5239631;28;20659;-67
2023/04/06 05:05:55;;;;;;;18.38;14.10;;;;;;;6.37;56.56;101494.25;5240777;28;20037;-68
2023/04/06 05:08:26;;;;;;;19.73;13.85;;;;;;;6.41;57.64;101498.34;5241426;28;20017;-69
2023/04/06 05:10:58;;;;;;;18.60;14.43;;;;;;;6.42;56.66;101499.19;5241074;28;20036;-68
2023/04/06 05:13:30;;;;;;;19.42;14.32;;;;;;;6.38;57.55;101495.91;5239693;28;20059;-68
2023/04/06 05:16:02;;;;;;;19.20;14.13;;;;;;;6.42;57.08;101492.22;5245252;28;20026;-68
2023/04/06 05:18:33;;;;;;;21.17;14.38;;;;;;;6.45;56.73;101497.25;5239386;28;20036;-67
2023/04/06 05:21:05;;;;;;;18.65;14.57;;;;;;;6.52;56.13;101495.13;5240503;28;20057;-68
2023/04/06 05:23:36;;;;;;;21.08;13.70;;;;;;;6.52;56.58;101501.19;5247826;28;20120;-68
2023/04/06 05:26:07;;;;;;;18.05;13.85;;;;;;;6.54;56.97;101499.31;5244329;28;20285;-68
2023/04/06 05:28:39;;;;;;;17.70;13.77;;;;;;;6.54;56.34;101504.53;5245881;28;20316;-68
2023/04/06 05:31:11;;;;;;;23.75;14.88;;;;;;;6.58;56.51;101500.81;5244680;28;20056;-68
2023/04/06 05:33:42;;;;;;;22.45;13.98;;;;;;;6.57;55.90;101504.34;5243911;28;20091;-68
2023/04/06 05:36:13;;;;;;;20.65;14.13;;;;;;;6.61;56.45;101501.56;5240796;28;20120;-69
2023/04/06 05:38:45;;;;;;;18.42;13.68;;;;;;;6.61;56.44;101505.00;5246072;28;20033;-69
2023/04/06 05:41:16;;;;;;;20.48;14.50;;;;;;;6.58;55.95;101489.56;5241305;28;20029;-68
2023/04/06 05:43:47;;;;;;;23.35;14.65;;;;;;;6.63;55.93;101497.97;5244704;28;20079;-68
2023/04/06 05:46:19;;;;;;;24.23;14.73;;;;;;;6.64;56.32;101498.81;5245438;28;20886;-68
2023/04/06 05:48:51;;;;;;;17.98;13.43;;;;;;;6.66;55.76;101497.75;5244688;28;20029;-68
2023/04/06 05:51:22;;;;;;;20.70;14.73;;;;;;;6.70;56.39;101499.25;5244009;28;20025;-68
2023/04/06 05:53:53;;;;;;;17.58;13.68;;;;;;;6.74;55.70;101499.91;5240549;28;20025;-68
2023/04/06 05:56:25;;;;;;;23.85;14.25;;;;;;;6.79;54.85;101497.91;5248178;28;20059;-68
2023/04/06 05:58:56;;;;;;;17.35;13.48;;;;;;;6.81;54.57;101490.81;5241544;28;20371;-67
2023/04/06 06:01:28;;;;;;;17.92;13.77;;;;;;;6.86;54.98;101490.53;5215022;28;20136;-67
2023/04/06 06:04:01;;;;;;;19.55;13.80;;;;;;;6.88;54.97;101484.34;5231423;28;20057;-68
2023/04/06 06:06:33;;;;;;;20.63;14.43;;;;;;;6.92;56.03;101501.44;5233001;28;20029;-67
2023/04/06 06:09:04;;;;;;;19.17;14.23;;;;;;;6.94;55.20;101498.78;5233680;28;20040;-67
2023/04/06 06:11:37;;;;;;;21.77;14.00;;;;;;;6.97;55.36;101496.81;5239556;28;20025;-67
2023/04/06 06:14:08;;;;;;;20.45;14.00;;;;;;;7.01;54.94;101500.09;5238077;28;20039;-68
2023/04/06 06:16:39;;;;;;;17.90;14.32;;;;;;;6.97;55.33;101502.03;5241571;28;20028;-67
2023/04/06 06:19:11;;;;;;;19.08;13.15;;;;;;;7.00;54.93;101504.44;5248368;28;20033;-68
2023/04/06 06:21:42;;;;;;;19.65;13.82;;;;;;;7.02;54.86;101502.59;5246980;28;20036;-67
2023/04/06 06:24:13;;;;;;;21.35;14.23;;;;;;;7.09;55.00;101505.69;5250319;28;20033;-67
2023/04/06 06:26:45;;;;;;;18.98;14.27;;;;;;;7.10;54.42;101504.75;5243915;28;20131;-68
2023/04/06 06:29:16;;;;;;;16.58;13.35;;;;;;;7.14;55.86;101503.63;5243700;28;20171;-67
2023/04/06 06:31:47;;;;;;;19.48;14.00;;;;;;;7.18;55.39;101504.28;5247425;28;20033;-67
2023/04/06 06:34:19;;;;;;;19.50;13.95;;;;;;;7.21;54.36;101501.50;5242457;28;20647;-67
2023/04/06 06:36:51;;;;;;;18.98;14.45;;;;;;;7.23;54.91;101503.06;5244569;28;20029;-67
2023/04/06 06:39:22;;;;;;;18.58;13.57;;;;;;;7.23;55.39;101508.28;5246620;28;20335;-67
2023/04/06 06:41:56;;;;;;;18.05;13.73;;;;;;;7.26;55.35;101508.09;5244797;28;20028;-68
2023/04/06 06:44:28;;;;;;;17.15;13.10;;;;;;;7.26;54.55;101500.28;5246407;28;20036;-67
2023/04/06 06:46:59;;;;;;;19.63;13.90;;;;;;;7.31;54.82;101497.38;5246025;28;20518;-68
2023/04/06 06:49:30;;;;;;;18.98;13.95;;;;;;;7.33;55.38;101492.94;5247747;28;20025;-68
2023/04/06 06:52:02;;;;;;;18.88;13.77;;;;;;;7.37;55.30;101499.63;5245857;28;20021;-67
2023/04/06 06:54:33;;;;;;;18.45;13.20;;;;;;;7.38;55.07;101508.28;5244963;28;20033;-68
2023/04/06 06:57:05;;;;;;;21.20;14.07;;;;;;;7.44;55.13;101505.31;5246730;28;20143;-68
2023/04/06 06:59:36;;;;;;;19.52;13.80;;;;;;;7.45;55.57;101500.00;5245049;28;20076;-68
2023/04/06 07:02:07;;;;;;;17.13;13.77;;;;;;;7.49;56.29;101500.66;5245422;28;20034;-68
2023/04/06 07:04:38;;;;;;;16.95;13.23;;;;;;;7.52;54.83;101495.25;5241112;28;20049;-68
2023/04/06 07:07:10;;;;;;;20.58;13.45;;;;;;;7.57;54.62;101501.00;5233981;28;20043;-68
2023/04/06 07:09:41;;;;;;;21.02;13.90;;;;;;;7.60;55.21;101494.78;5241736;28;20467;-68
2023/04/06 07:12:12;;;;;;;19.95;13.80;;;;;;;7.54;55.20;101486.41;5234613;28;20040;-68
2023/04/06 07:14:44;;;;;;;23.95;13.43;;;;;;;7.61;54.49;101492.06;5244759;28;20494;-68
2023/04/06 07:17:15;;;;;;;18.40;13.63;;;;;;;7.65;55.55;101492.72;5242538;28;20032;-68
2023/04/06 07:19:46;;;;;;;18.38;13.68;;;;;;;7.69;55.87;101491.59;5230920;28;20500;-68
2023/04/06 07:22:18;;;;;;;18.58;13.50;;;;;;;7.73;55.93;101493.09;5234573;28;20025;-68
2023/04/06 07:24:50;;;;;;;18.25;13.98;;;;;;;7.70;55.75;101475.88;5234999;28;20029;-68
2023/04/06 07:27:21;;;;;;;22.48;14.57;;;;;;;7.79;55.49;101493.53;5240600;28;20213;-68
2023/04/06 07:29:52;;;;;;;18.30;14.27;;;;;;;7.84;55.49;101488.06;5239671;28;20025;-68
2023/04/06 07:32:24;;;;;;;19.98;13.65;;;;;;;7.86;55.28;101483.56;5241372;28;20852;-68
2023/04/06 07:34:56;;;;;;;19.23;13.80;;;;;;;7.89;54.27;101488.59;5242305;28;20662;-68
2023/04/06 07:37:27;;;;;;;17.80;13.23;;;;;;;7.95;55.30;101489.97;5242293;28;20458;-68
2023/04/06 07:39:59;;;;;;;18.10;13.77;;;;;;;7.99;55.21;101484.47;5242640;28;20076;-68
2023/04/06 07:42:32;;;;;;;18.20;14.07;;;;;;;8.08;54.98;101490.88;5242371;28;20564;-68
2023/04/06 07:45:04;;;;;;;18.10;13.13;;;;;;;8.11;54.63;101490.66;5241270;28;20182;-68
2023/04/06 07:47:35;;;;;;;19.40;13.18;;;;;;;8.11;54.78;101482.84;5240446;28;20024;-68
2023/04/06 07:50:07;;;;;;;19.08;13.65;;;;;;;8.17;54.54;101481.59;5239024;28;20029;-68
2023/04/06 07:52:39;;;;;;;17.75;13.73;;;;;;;8.22;53.81;101480.38;5243225;28;20336;-68
2023/04/06 07:55:10;;;;;;;20.38;13.48;;;;;;;8.24;55.53;101480.28;5241796;28;20029;-68
2023/04/06 07:57:42;;;;;;;19.88;13.30;;;;;;;8.34;55.28;101478.75;5240858;28;20029;-68
2023/04/06 08:00:13;;;;;;;19.27;12.70;;;;;;;8.40;55.40;101486.19;5244812;28;20425;-68
2023/04/06 08:02:45;;;;;;;19.00;13.40;;;;;;;8.43;55.51;101480.78;5241048;28;20090;-69
2023/04/06 08:05:17;;;;;;;18.85;14.10;;;;;;;8.47;56.44;101487.47;5239409;28;20052;-68
2023/04/06 08:07:49;;;;;;;19.77;13.03;;;;;;;8.52;54.96;101482.78;5239330;28;20086;-68
2023/04/06 08:10:20;;;;;;;18.27;13.05;;;;;;;8.58;55.26;101492.00;5242560;28;20029;-68
2023/04/06 08:12:52;;;;;;;18.00;13.63;;;;;;;8.63;56.74;101481.22;5242108;28;20060;-68
2023/04/06 08:15:23;;;;;;;18.35;13.02;;;;;;;8.69;55.89;101489.50;5239336;28;20136;-68
2023/04/06 08:17:57;;;;;;;17.95;13.18;;;;;;;8.78;56.62;101488.03;5239639;28;20371;-68
2023/04/06 08:20:28;;;;;;;20.77;14.27;;;;;;;8.78;56.79;101482.81;5237179;28;20013;-68
2023/04/06 08:22:59;;;;;;;17.58;13.70;;;;;;;8.86;56.77;101483.13;5242972;28;20067;-68
2023/04/06 08:25:31;;;;;;;17.73;13.27;;;;;;;8.94;57.09;101485.22;5239252;28;20024;-68
2023/04/06 08:28:03;;;;;;;19.65;14.40;;;;;;;8.99;57.28;101485.78;5240559;28;20025;-68
2023/04/06 08:30:35;;;;;;;21.07;13.93;;;;;;;9.02;57.01;101491.63;5240071;28;20029;-68
2023/04/06 08:33:06;;;;;;;18.85;13.30;;;;;;;9.08;56.35;101487.75;5242618;28;20034;-68
2023/04/06 08:35:37;;;;;;;18.38;14.93;;;;;;;9.12;56.22;101501.44;5243775;28;20123;-68
2023/04/06 08:38:09;;;;;;;17.85;13.82;;;;;;;9.14;56.97;101495.19;5243363;28;20124;-68
2023/04/06 08:40:40;;;;;;;18.58;13.85;;;;;;;9.16;56.06;101495.91;5242444;28;20035;-68
2023/04/06 08:43:14;;;;;;;17.48;13.38;;;;;;;9.19;56.79;101487.03;5243271;28;20036;-68
2023/04/06 08:45:45;;;;;;;17.80;13.80;;;;;;;9.25;57.00;101489.22;5240010;28;20170;-68
2023/04/06 08:48:18;;;;;;;17.67;14.57;;;;;;;9.33;56.69;101497.38;5245349;28;20021;-68
2023/04/06 08:50:49;;;;;;;19.13;14.13;;;;;;;9.42;57.14;101501.94;5243811;28;20120;-68
2023/04/06 08:53:21;;;;;;;18.00;13.40;;;;;;;9.46;56.27;101495.56;5242734;28;20047;-68
2023/04/06 08:55:52;;;;;;;19.02;13.30;;;;;;;9.53;56.80;101498.59;5244469;28;20106;-68
2023/04/06 08:58:27;;;;;;;21.30;13.23;;;;;;;9.68;56.93;101494.06;5244918;28;20051;-69
2023/04/06 09:01:00;;;;;;;20.25;14.10;;;;;;;9.72;57.46;101495.53;5247369;28;20024;-68
2023/04/06 09:03:33;;;;;;;19.93;13.93;;;;;;;9.81;57.87;101496.63;5248968;28;20049;-68
2023/04/06 09:06:05;;;;;;;;;;;;;;;10.46;55.50;101497.16;5246237;28;20424;-68
2023/04/06 09:08:39;;;;;;;19.27;14.05;;;;;;;10.05;57.64;101500.13;5247089;28;19913;-68
2023/04/06 09:11:11;;;;;;;19.55;13.30;;;;;;;9.99;58.92;101501.41;5241952;28;20025;-68
2023/04/06 09:13:50;;;;;;;18.92;14.30;;;;;;;10.17;59.56;101498.41;5245558;28;20078;-69
2023/04/06 09:16:22;;;;;;;21.52;14.98;;;;;;;10.12;60.34;101500.53;5244590;28;20044;-68
2023/04/06 09:18:54;;;;;;;18.73;14.25;;;;;;;10.16;62.05;101502.81;5247784;28;20029;-69
2023/04/06 09:21:25;;;;;;;19.38;14.70;;;;;;;10.20;62.48;101509.50;5245826;28;20036;-69
2023/04/06 09:24:01;;;;;;;18.88;13.02;;;;;;;10.35;64.41;101499.72;5246344;28;20028;-69
2023/04/06 09:26:43;;;;;;;20.48;14.13;;;;;;;10.34;68.92;101505.91;5243289;28;20193;-69
2023/04/06 09:29:27;;;;;;;19.25;14.68;;;;;;;10.45;65.55;101495.50;5246846;28;20033;-69
2023/04/06 09:32:06;;;;;;;19.98;14.73;;;;;;;10.52;65.75;101502.88;5245371;28;20484;-69
2023/04/06 09:34:38;;;;;;;17.85;12.88;;;;;;;10.45;65.82;101500.72;5245458;28;20033;-68
2023/04/06 09:37:17;;;;;;;17.55;12.65;;;;;;;10.57;64.32;101498.97;5246011;28;20024;-69
2023/04/06 09:39:51;;;;;;;21.63;12.98;;;;;;;10.46;63.32;101498.94;5243518;28;20022;-69
2023/04/06 09:42:25;;;;;;;20.33;14.18;;;;;;;10.59;64.95;101493.63;5242659;28;20025;-69
2023/04/06 09:44:57;;;;;;;17.02;12.60;;;;;;;10.54;65.04;101490.50;5244203;28;20033;-69
2023/04/06 09:47:30;;;;;;;16.35;12.15;;;;;;;10.48;62.98;101502.25;5247739;28;20043;-69
2023/04/06 09:50:02;;;;;;;17.35;10.98;;;;;;;10.53;65.28;101502.78;5243035;28;20052;-69
2023/04/06 09:52:41;;;;;;;12.55;10.05;;;;;;;10.68;67.20;101506.00;5244552;28;20083;-69
2023/04/06 09:55:24;;;;;;;15.45;11.25;;;;;;;10.59;69.01;101491.00;5244923;28;20433;-69
2023/04/06 09:58:09;;;;;;;15.48;10.98;;;;;;;10.67;69.80;101501.72;5245791;28;20037;-69
2023/04/06 10:00:47;;;;;;;13.07;10.77;;;;;;;10.51;73.51;101491.56;5242832;28;20072;-69
2023/04/06 10:03:37;;;;;;;13.65;9.75;;;;;;;10.66;73.63;101500.06;5242895;28;20045;-69
2023/04/06 10:06:12;;;;;;;13.25;10.15;;;;;;;10.57;76.63;101491.13;5244546;28;20195;-69
2023/04/06 10:08:47;;;;;;;14.77;10.60;;;;;;;10.47;76.67;101495.38;5244447;28;20033;-69
2023/04/06 10:11:19;;;;;;;14.25;10.73;;;;;;;10.44;78.72;101498.19;5241557;28;20036;-68
2023/04/06 10:13:50;;;;;;;11.57;9.88;;;;;;;10.46;80.65;101499.78;5238143;28;20056;-69
2023/04/06 10:16:22;;;;;;;11.70;9.82;;;;;;;10.49;80.32;101498.69;5240853;28;20052;-69
2023/04/06 10:19:01;;;;;;;13.65;10.02;;;;;;;10.58;82.35;101495.41;5247313;28;20035;-69
2023/04/06 10:21:35;;;;;;;14.45;10.45;;;;;;;10.50;82.80;101503.00;5244281;28;21200;-69
2023/04/06 10:24:10;;;;;;;13.70;10.07;;;;;;;10.44;84.00;101495.56;5243560;28;20402;-69
2023/04/06 10:26:41;;;;;;;13.55;9.90;;;;;;;10.45;83.26;101500.72;5235755;28;20390;-69
2023/04/06 10:29:13;;;;;;;12.05;9.40;;;;;;;10.43;84.37;101502.59;5243706;28;20025;-69
2023/04/06 10:31:44;;;;;;;12.15;9.25;;;;;;;10.43;85.23;101502.59;5241430;28;20112;-69
2023/04/06 10:34:15;;;;;;;11.88;9.77;;;;;;;10.42;88.81;101495.72;5240218;28;20029;-69
2023/04/06 10:36:47;;;;;;;13.43;9.50;;;;;;;10.46;87.82;101497.16;5240332;28;20025;-69
2023/04/06 10:39:25;;;;;;;13.93;9.15;;;;;;;10.59;90.19;101496.22;5244688;28;20021;-69
2023/04/06 10:42:06;;;;;;;12.63;8.70;;;;;;;10.68;90.20;101506.88;5238905;28;20112;-69
2023/04/06 10:44:43;;;;;;;11.35;8.10;;;;;;;10.60;90.48;101500.50;5242056;28;20024;-69
2023/04/06 10:47:18;;;;;;;12.27;8.57;;;;;;;10.61;92.30;101494.34;5241272;28;20349;-69
2023/04/06 10:49:49;;;;;;;9.13;7.30;;;;;;;10.55;91.14;101489.56;5243419;28;20033;-69
2023/04/06 10:52:20;;;;;;;10.65;7.93;;;;;;;10.53;92.73;101494.91;5242588;28;20036;-69
2023/04/06 10:54:52;;;;;;;13.45;7.38;;;;;;;10.58;93.87;101491.94;5242349;28;20048;-69
2023/04/06 10:57:33;;;;;;;11.95;7.50;;;;;;;10.73;94.68;101488.19;5238065;28;20024;-69
2023/04/06 11:00:05;;;;;;;9.48;7.70;;;;;;;10.53;93.53;101468.72;5234244;28;20040;-69
2023/04/06 11:02:39;;;;;;;9.30;7.40;;;;;;;10.60;92.73;101480.38;5240658;28;20060;-69
2023/04/06 11:05:12;;;;;;;10.18;7.95;;;;;;;10.58;96.10;101481.47;5238767;28;20303;-68
2023/04/06 11:07:44;;;;;;;8.90;7.10;;;;;;;10.67;95.73;101483.38;5244158;28;20033;-69
2023/04/06 11:10:22;;;;;;;10.55;7.68;;;;;;;10.77;96.37;101478.31;5239510;28;20032;-69
2023/04/06 11:12:54;;;;;;;8.10;6.88;;;;;;;10.58;96.93;101481.47;5246630;28;20119;-69
2023/04/06 11:15:26;;;;;;;9.93;7.57;;;;;;;10.56;95.29;101471.09;5242771;28;21420;-69
2023/04/06 11:17:57;;;;;;;8.75;7.28;;;;;;;10.57;98.06;101483.25;5245528;28;20033;-69
2023/04/06 11:20:28;;;;;;;9.57;7.22;;;;;;;10.53;100.00;101476.56;5243306;28;20432;-70
2023/04/06 11:23:00;;;;;;;9.68;7.60;;;;;;;10.46;100.00;101473.56;5238096;28;20041;-69
2023/04/06 11:25:32;;;;;;;13.02;8.15;;;;;;;10.46;98.92;101465.72;5239717;28;20021;-69
2023/04/06 11:28:03;;;;;;;10.57;8.15;;;;;;;10.47;100.00;101464.75;5243071;28;20025;-69
2023/04/06 11:30:35;;;;;;;9.65;7.70;;;;;;;10.46;100.00;101452.63;5240816;28;20055;-69
2023/04/06 11:33:06;;;;;;;10.00;8.10;;;;;;;10.55;100.00;101450.25;5242777;28;20030;-69
2023/04/06 11:35:38;;;;;;;9.10;7.60;;;;;;;10.56;100.00;101452.75;5244721;28;20630;-69
2023/04/06 11:38:09;;;;;;;9.20;7.38;;;;;;;10.75;100.00;101446.94;5240486;28;20028;-69